createdAt,value
2019-03-05T00:00:25.273Z,6.80
2019-03-05T00:02:53.829Z,6.70
2019-03-05T00:05:22.491Z,6.80
2019-03-05T00:07:51.045Z,6.70
2019-03-05T00:10:19.696Z,6.80
2019-03-05T00:12:48.248Z,6.60
2019-03-05T00:15:19.303Z,6.60
2019-03-05T00:17:47.860Z,6.60
2019-03-05T00:20:16.460Z,6.80
2019-03-05T00:22:45.009Z,6.70
2019-03-05T00:25:21.820Z,6.80
2019-03-05T00:27:56.456Z,6.80
2019-03-05T00:30:33.899Z,6.80
2019-03-05T00:33:17.369Z,6.70
2019-03-05T00:35:57.893Z,6.70
2019-03-05T00:39:02.477Z,6.60
2019-03-05T00:41:39.875Z,6.70
2019-03-05T00:44:20.075Z,6.50
2019-03-05T00:47:18.736Z,6.60
2019-03-05T00:49:53.124Z,6.70
2019-03-05T00:52:45.549Z,6.80
2019-03-05T00:55:32.039Z,6.50
2019-03-05T00:58:09.473Z,6.50
2019-03-05T01:00:46.660Z,6.50
2019-03-05T01:03:23.820Z,6.60
2019-03-05T01:05:55.474Z,6.60
2019-03-05T01:08:24.444Z,6.60
2019-03-05T01:10:53.110Z,6.70
2019-03-05T01:13:21.725Z,6.70
2019-03-05T01:15:50.653Z,6.70
2019-03-05T01:18:19.278Z,6.60
2019-03-05T01:20:47.864Z,6.60
2019-03-05T01:23:16.557Z,6.60
2019-03-05T01:25:45.485Z,6.50
2019-03-05T01:28:14.110Z,6.50
2019-03-05T01:30:51.060Z,6.40
2019-03-05T01:33:20.301Z,6.50
2019-03-05T01:35:59.972Z,6.50
2019-03-05T01:38:30.168Z,6.60
2019-03-05T01:41:00.402Z,6.50
2019-03-05T01:43:28.946Z,6.40
2019-03-05T01:45:57.534Z,6.60
2019-03-05T01:48:26.088Z,6.40
2019-03-05T01:50:54.748Z,6.50
2019-03-05T01:53:23.377Z,6.60
2019-03-05T01:55:51.962Z,6.70
2019-03-05T01:58:20.521Z,6.50
2019-03-05T02:00:49.176Z,6.50
2019-03-05T02:03:17.735Z,6.50
2019-03-05T02:05:46.761Z,6.50
2019-03-05T02:08:15.385Z,6.40
2019-03-05T02:10:44.408Z,6.40
2019-03-05T02:13:13.196Z,6.40
2019-03-05T02:15:41.790Z,6.40
2019-03-05T02:18:13.548Z,6.40
2019-03-05T02:20:42.208Z,6.40
2019-03-05T02:23:14.168Z,6.50
2019-03-05T02:25:57.666Z,6.50
2019-03-05T02:28:46.396Z,6.60
2019-03-05T02:31:29.190Z,6.60
2019-03-05T02:34:09.846Z,6.60
2019-03-05T02:37:06.741Z,6.40
2019-03-05T02:39:50.410Z,6.60
2019-03-05T02:42:38.617Z,6.50
2019-03-05T02:45:46.153Z,6.60
2019-03-05T02:48:20.533Z,6.50
2019-03-05T02:51:12.972Z,6.30
2019-03-05T02:54:02.250Z,6.50
2019-03-05T02:56:58.782Z,6.60
2019-03-05T02:59:27.361Z,6.50
2019-03-05T03:02:00.229Z,6.40
2019-03-05T03:04:30.455Z,6.40
2019-03-05T03:06:59.005Z,6.40
2019-03-05T03:09:36.525Z,6.40
2019-03-05T03:12:05.148Z,6.50
2019-03-05T03:14:33.735Z,6.60
2019-03-05T03:17:02.284Z,6.60
2019-03-05T03:19:30.940Z,6.50
2019-03-05T03:21:59.490Z,6.50
2019-03-05T03:24:28.070Z,6.60
2019-03-05T03:26:56.623Z,6.60
2019-03-05T03:29:25.210Z,6.50
2019-03-05T03:31:53.814Z,6.60
2019-03-05T03:34:22.367Z,6.50
2019-03-05T03:36:50.993Z,6.50
2019-03-05T03:39:19.552Z,6.60
2019-03-05T03:41:48.130Z,6.70
2019-03-05T03:44:16.761Z,6.60
2019-03-05T03:46:45.342Z,6.60
2019-03-05T03:49:13.899Z,6.70
2019-03-05T03:51:42.484Z,6.70
2019-03-05T03:54:11.039Z,6.70
2019-03-05T03:56:39.617Z,6.60
2019-03-05T03:59:08.177Z,6.60
2019-03-05T04:01:36.757Z,6.60
2019-03-05T04:04:05.328Z,6.70
2019-03-05T04:06:33.975Z,6.70
2019-03-05T04:09:02.665Z,6.70
2019-03-05T04:11:31.255Z,6.70
2019-03-05T04:13:59.943Z,6.80
2019-03-05T04:16:28.497Z,6.70
2019-03-05T04:18:58.318Z,6.90
2019-03-05T04:21:26.910Z,6.80
2019-03-05T04:23:55.459Z,6.90
2019-03-05T04:26:24.044Z,6.90
2019-03-05T04:28:52.603Z,6.70
2019-03-05T04:31:21.184Z,6.70
2019-03-05T04:33:49.733Z,6.70
2019-03-05T04:36:18.322Z,6.60
2019-03-05T04:38:46.882Z,6.70
2019-03-05T04:41:15.456Z,6.70
2019-03-05T04:43:44.025Z,6.70
2019-03-05T04:46:32.411Z,6.70
2019-03-05T04:49:18.924Z,6.70
2019-03-05T04:51:57.907Z,6.80
2019-03-05T04:54:26.489Z,6.70
2019-03-05T04:56:55.069Z,6.70
2019-03-05T04:59:23.621Z,6.70
2019-03-05T05:01:52.210Z,6.80
2019-03-05T05:04:20.770Z,6.80
2019-03-05T05:06:49.421Z,6.70
2019-03-05T05:09:17.972Z,6.70
2019-03-05T05:11:46.564Z,6.70
2019-03-05T05:14:15.119Z,6.80
2019-03-05T05:16:43.703Z,6.80
2019-03-05T05:19:12.252Z,6.80
2019-03-05T05:21:40.836Z,6.90
2019-03-05T05:24:09.393Z,6.80
2019-03-05T05:26:37.981Z,6.80
2019-03-05T05:29:06.531Z,6.80
2019-03-05T05:31:35.285Z,6.70
2019-03-05T05:34:03.837Z,6.70
2019-03-05T05:36:32.420Z,6.70
2019-03-05T05:39:01.056Z,6.60
2019-03-05T05:41:29.640Z,6.60
2019-03-05T05:43:58.200Z,6.70
2019-03-05T05:46:26.842Z,6.80
2019-03-05T05:48:55.341Z,6.80
2019-03-05T05:51:24.009Z,6.80
2019-03-05T05:53:52.559Z,6.70
2019-03-05T05:56:21.151Z,6.80
2019-03-05T05:58:49.703Z,6.90
2019-03-05T06:01:18.252Z,6.90
2019-03-05T06:03:46.831Z,6.70
2019-03-05T06:06:15.394Z,6.70
2019-03-05T06:08:44.040Z,6.70
2019-03-05T06:11:12.608Z,6.70
2019-03-05T06:13:41.192Z,6.80
2019-03-05T06:16:09.751Z,6.80
2019-03-05T06:18:38.336Z,6.80
2019-03-05T06:21:06.888Z,6.70
2019-03-05T06:23:35.477Z,6.70
2019-03-05T06:26:04.037Z,6.80
2019-03-05T06:28:32.620Z,6.80
2019-03-05T06:31:01.181Z,6.70
2019-03-05T06:33:29.767Z,6.70
2019-03-05T06:35:58.511Z,6.70
2019-03-05T06:38:27.093Z,6.70
2019-03-05T06:40:56.392Z,6.70
2019-03-05T06:43:27.068Z,6.70
2019-03-05T06:45:55.768Z,6.80
2019-03-05T06:48:24.366Z,6.80
2019-03-05T06:50:52.927Z,6.90
2019-03-05T06:53:24.518Z,6.90
2019-03-05T06:55:53.208Z,6.90
2019-03-05T06:58:21.793Z,6.90
2019-03-05T07:00:50.348Z,7.00
2019-03-05T07:03:19.014Z,7.00
2019-03-05T07:06:23.581Z,7.00
2019-03-05T07:09:13.189Z,7.00
2019-03-05T07:11:47.265Z,7.10
2019-03-05T07:14:27.415Z,7.00
2019-03-05T07:17:10.721Z,7.20
2019-03-05T07:19:58.463Z,7.20
2019-03-05T07:22:35.880Z,7.20
2019-03-05T07:25:05.450Z,7.30
2019-03-05T07:27:34.143Z,7.40
2019-03-05T07:30:04.840Z,7.50
2019-03-05T07:32:33.523Z,7.50
2019-03-05T07:35:02.081Z,7.50
2019-03-05T07:37:30.640Z,7.50
2019-03-05T07:39:59.244Z,7.70
2019-03-05T07:42:27.849Z,7.70
2019-03-05T07:44:56.564Z,7.80
2019-03-05T07:47:26.971Z,8.00
2019-03-05T07:49:55.498Z,8.20
2019-03-05T07:52:24.057Z,8.10
2019-03-05T07:54:52.693Z,8.00
2019-03-05T07:57:21.283Z,8.00
2019-03-05T07:59:49.884Z,8.00
2019-03-05T08:02:18.437Z,8.20
2019-03-05T08:04:47.027Z,8.30
2019-03-05T08:07:15.575Z,8.40
2019-03-05T08:09:44.173Z,8.40
2019-03-05T08:12:18.761Z,8.40
2019-03-05T08:15:02.563Z,8.30
2019-03-05T08:17:31.131Z,8.30
2019-03-05T08:19:59.708Z,8.40
2019-03-05T08:22:28.479Z,8.40
2019-03-05T08:24:57.057Z,8.50
2019-03-05T08:27:25.615Z,8.60
2019-03-05T08:29:54.371Z,8.60
2019-03-05T08:32:22.998Z,8.50
2019-03-05T08:34:51.585Z,8.30
2019-03-05T08:37:20.142Z,8.30
2019-03-05T08:39:48.741Z,8.10
2019-03-05T08:42:17.360Z,7.90
2019-03-05T08:44:50.295Z,7.60
2019-03-05T08:47:16.133Z,7.40
2019-03-05T08:49:44.717Z,7.20
2019-03-05T08:52:13.273Z,7.10
2019-03-05T08:54:41.860Z,7.00
2019-03-05T08:57:10.426Z,6.90
2019-03-05T08:59:39.018Z,6.90
2019-03-05T09:02:07.644Z,6.80
2019-03-05T09:04:36.229Z,6.80
2019-03-05T09:07:04.857Z,6.80
2019-03-05T09:09:33.444Z,6.80
2019-03-05T09:12:02.241Z,6.70
2019-03-05T09:14:34.513Z,6.60
2019-03-05T09:17:03.721Z,6.60
2019-03-05T09:19:32.311Z,6.60
2019-03-05T09:22:00.874Z,6.50
2019-03-05T09:24:29.457Z,6.40
2019-03-05T09:26:58.013Z,6.60
2019-03-05T09:29:26.598Z,6.60
2019-03-05T09:31:55.161Z,6.50
2019-03-05T09:34:23.909Z,6.50
2019-03-05T09:36:52.476Z,6.50
2019-03-05T09:39:21.055Z,6.50
2019-03-05T09:41:49.625Z,6.40
2019-03-05T09:44:18.207Z,6.40
2019-03-05T09:46:46.760Z,6.40
2019-03-05T09:49:15.387Z,6.30
2019-03-05T09:51:43.938Z,6.50
2019-03-05T09:54:12.518Z,6.70
2019-03-05T09:56:41.078Z,6.70
2019-03-05T09:59:09.660Z,6.70
2019-03-05T10:01:39.183Z,6.90
2019-03-05T10:04:08.948Z,6.90
2019-03-05T10:06:37.639Z,6.90
2019-03-05T10:09:06.994Z,7.00
2019-03-05T10:11:35.611Z,6.80
2019-03-05T10:14:04.340Z,6.90
2019-03-05T10:16:32.965Z,6.90
2019-03-05T10:19:01.473Z,7.00
2019-03-05T10:21:30.171Z,7.00
2019-03-05T10:24:09.749Z,7.00
2019-03-05T10:26:29.104Z,7.10
2019-03-05T10:28:57.748Z,7.10
2019-03-05T10:31:26.319Z,7.20
2019-03-05T10:33:54.923Z,7.40
2019-03-05T10:36:23.549Z,7.30
2019-03-05T10:38:57.404Z,7.40
2019-03-05T10:41:22.474Z,7.40
2019-03-05T10:43:51.144Z,7.50
2019-03-05T10:46:19.835Z,7.70
2019-03-05T10:48:48.406Z,7.70
2019-03-05T10:51:17.071Z,7.80
2019-03-05T10:53:45.636Z,7.70
2019-03-05T10:56:14.229Z,7.70
2019-03-05T10:58:42.797Z,7.70
2019-03-05T11:01:13.601Z,7.80
2019-03-05T11:03:42.300Z,7.70
2019-03-05T11:06:10.962Z,7.70
2019-03-05T11:08:39.581Z,7.70
2019-03-05T11:11:13.463Z,7.60
2019-03-05T11:13:38.581Z,7.60
2019-03-05T11:16:07.512Z,7.60
2019-03-05T11:18:37.607Z,7.50
2019-03-05T11:21:06.943Z,7.50
2019-03-05T11:23:35.506Z,7.40
2019-03-05T11:26:04.397Z,7.50
2019-03-05T11:28:33.031Z,7.60
2019-03-05T11:31:01.676Z,7.40
2019-03-05T11:33:30.244Z,7.50
2019-03-05T11:35:58.977Z,7.40
2019-03-05T11:38:27.529Z,7.50
2019-03-05T11:40:56.117Z,7.50
2019-03-05T11:43:24.676Z,7.50
2019-03-05T11:45:53.264Z,7.60
2019-03-05T11:48:21.817Z,7.60
2019-03-05T11:50:51.573Z,7.50
2019-03-05T11:53:20.300Z,7.50
2019-03-05T11:55:48.955Z,7.30
2019-03-05T11:58:17.531Z,7.40
2019-03-05T12:00:53.518Z,7.40
2019-03-05T12:03:22.101Z,7.40
2019-03-05T12:05:51.392Z,7.40
2019-03-05T12:08:19.957Z,7.40
2019-03-05T12:10:50.086Z,7.50
2019-03-05T12:13:18.952Z,7.40
2019-03-05T12:15:47.544Z,7.30
2019-03-05T12:18:16.244Z,7.50
2019-03-05T12:20:46.869Z,7.50
2019-03-05T12:23:15.418Z,7.50
2019-03-05T12:25:45.018Z,7.60
2019-03-05T12:28:13.740Z,7.50
2019-03-05T12:30:42.333Z,7.50
2019-03-05T12:33:10.883Z,7.40
2019-03-05T12:35:39.469Z,7.50
2019-03-05T12:38:08.096Z,7.60
2019-03-05T12:40:36.684Z,7.60
2019-03-05T12:43:05.244Z,7.60
2019-03-05T12:45:33.972Z,7.50
2019-03-05T12:48:02.605Z,7.60
2019-03-05T12:50:32.996Z,7.70
2019-03-05T12:53:01.633Z,7.40
2019-03-05T12:55:30.283Z,7.40
2019-03-05T12:57:58.980Z,7.50
2019-03-05T13:00:34.765Z,7.70
2019-03-05T13:03:03.760Z,7.80
2019-03-05T13:05:32.348Z,7.90
2019-03-05T13:08:00.884Z,7.90
2019-03-05T13:10:35.273Z,8.00
2019-03-05T13:13:01.103Z,8.10
2019-03-05T13:15:37.009Z,8.10
2019-03-05T13:18:05.704Z,8.10
2019-03-05T13:20:34.360Z,8.20
2019-03-05T13:23:08.701Z,8.30
2019-03-05T13:25:33.393Z,8.50
2019-03-05T13:28:04.025Z,8.30
2019-03-05T13:30:32.965Z,8.30
2019-03-05T13:33:01.772Z,8.30
2019-03-05T13:35:32.038Z,8.30
2019-03-05T13:38:07.456Z,8.40
2019-03-05T13:40:38.499Z,8.30
2019-03-05T13:43:04.791Z,8.20
2019-03-05T13:45:33.619Z,8.20
2019-03-05T13:48:23.614Z,8.30
2019-03-05T13:51:07.988Z,8.20
2019-03-05T13:54:00.821Z,8.20
2019-03-05T13:56:29.384Z,8.00
2019-03-05T13:59:32.209Z,8.10
2019-03-05T14:02:00.788Z,8.10
2019-03-05T14:04:35.361Z,8.10
2019-03-05T14:07:07.130Z,8.00
2019-03-05T14:09:34.612Z,8.00
2019-03-05T14:12:03.196Z,8.10
2019-03-05T14:14:31.919Z,8.10
2019-03-05T14:17:14.337Z,8.10
2019-03-05T14:19:42.953Z,8.30
2019-03-05T14:22:11.574Z,8.40
2019-03-05T14:24:40.214Z,8.50
2019-03-05T14:27:08.929Z,8.40
2019-03-05T14:29:38.233Z,8.40
2019-03-05T14:32:08.248Z,8.40
2019-03-05T14:34:36.838Z,8.10
2019-03-05T14:37:05.575Z,7.90
2019-03-05T14:39:34.630Z,8.00
2019-03-05T14:42:05.286Z,8.00
2019-03-05T14:44:39.979Z,8.00
2019-03-05T14:47:05.576Z,8.00
2019-03-05T14:49:34.223Z,8.00
2019-03-05T14:52:02.927Z,7.90
2019-03-05T14:54:31.534Z,7.90
2019-03-05T14:57:00.130Z,7.90
2019-03-05T14:59:28.686Z,7.90
2019-03-05T15:01:57.290Z,7.90
2019-03-05T15:04:25.953Z,7.90
2019-03-05T15:06:54.598Z,7.90
2019-03-05T15:09:23.233Z,8.00
2019-03-05T15:11:54.516Z,7.80
2019-03-05T15:14:23.062Z,7.90
2019-03-05T15:16:51.831Z,8.00
2019-03-05T15:19:21.705Z,8.00
2019-03-05T15:21:50.545Z,8.10
2019-03-05T15:24:19.093Z,8.10
2019-03-05T15:26:47.719Z,8.00
2019-03-05T15:29:16.284Z,8.10
2019-03-05T15:31:44.870Z,8.20
2019-03-05T15:34:13.415Z,8.10
2019-03-05T15:36:42.018Z,8.10
2019-03-05T15:39:10.563Z,8.20
2019-03-05T15:41:39.139Z,8.10
2019-03-05T15:44:07.735Z,8.10
2019-03-05T15:46:36.276Z,8.20
2019-03-05T15:49:04.969Z,8.20
2019-03-05T15:51:33.560Z,8.20
2019-03-05T15:54:02.185Z,8.20
2019-03-05T15:56:30.783Z,8.10
2019-03-05T15:58:59.344Z,8.10
2019-03-05T16:01:27.933Z,8.20
2019-03-05T16:03:56.493Z,8.00
2019-03-05T16:06:25.101Z,7.90
2019-03-05T16:08:53.653Z,8.00
2019-03-05T16:11:22.248Z,8.10
2019-03-05T16:13:52.354Z,8.00
2019-03-05T16:16:21.063Z,7.90
2019-03-05T16:18:49.673Z,8.00
2019-03-05T16:21:18.288Z,8.10
2019-03-05T16:23:46.881Z,8.10
2019-03-05T16:26:15.503Z,8.10
2019-03-05T16:28:45.106Z,8.10
2019-03-05T16:31:15.288Z,8.10
2019-03-05T16:33:45.842Z,8.00
2019-03-05T16:36:16.013Z,8.00
2019-03-05T16:38:58.098Z,8.10
2019-03-05T16:41:34.165Z,8.10
2019-03-05T16:44:20.129Z,8.00
2019-03-05T16:46:56.164Z,8.00
2019-03-05T16:49:42.441Z,8.00
2019-03-05T16:52:12.861Z,8.00
2019-03-05T16:54:45.781Z,8.00
2019-03-05T16:57:32.329Z,8.00
2019-03-05T17:00:02.523Z,8.00
2019-03-05T17:02:38.735Z,8.00
2019-03-05T17:05:30.323Z,8.00
2019-03-05T17:08:12.049Z,7.90
2019-03-05T17:10:51.110Z,7.80
2019-03-05T17:13:19.774Z,7.70
2019-03-05T17:15:48.324Z,7.70
2019-03-05T17:18:17.014Z,7.60
2019-03-05T17:20:45.569Z,7.70
2019-03-05T17:23:14.231Z,7.50
2019-03-05T17:25:42.780Z,7.60
2019-03-05T17:28:11.400Z,7.70
2019-03-05T17:30:40.108Z,7.60
2019-03-05T17:33:08.707Z,7.60
2019-03-05T17:35:37.324Z,7.60
2019-03-05T17:38:06.191Z,7.70
2019-03-05T17:40:34.808Z,7.60
2019-03-05T17:43:03.598Z,7.70
2019-03-05T17:45:32.281Z,7.70
2019-03-05T17:48:00.960Z,7.70
2019-03-05T17:50:29.520Z,7.70
2019-03-05T17:52:58.193Z,7.50
2019-03-05T17:55:27.992Z,7.50
2019-03-05T17:57:56.681Z,7.50
2019-03-05T18:00:33.050Z,7.60
2019-03-05T18:03:01.864Z,7.70
2019-03-05T18:05:30.420Z,7.70
2019-03-05T18:07:59.034Z,7.60
2019-03-05T18:10:27.660Z,7.60
2019-03-05T18:12:56.280Z,7.60
2019-03-05T18:15:24.960Z,7.60
2019-03-05T18:17:53.579Z,7.50
2019-03-05T18:20:23.093Z,7.60
2019-03-05T18:22:51.658Z,7.50
2019-03-05T18:25:20.714Z,7.50
2019-03-05T18:27:49.412Z,7.40
2019-03-05T18:30:28.472Z,7.50
2019-03-05T18:32:57.232Z,7.50
2019-03-05T18:35:25.841Z,7.50
2019-03-05T18:37:54.843Z,7.40
2019-03-05T18:40:24.488Z,7.40
2019-03-05T18:42:53.175Z,7.40
2019-03-05T18:45:28.069Z,7.30
2019-03-05T18:47:56.762Z,7.30
2019-03-05T18:50:25.544Z,7.20
2019-03-05T18:52:55.344Z,7.30
2019-03-05T18:55:24.891Z,7.20
2019-03-05T18:57:53.713Z,7.20
2019-03-05T19:00:29.880Z,7.20
2019-03-05T19:03:07.190Z,7.20
2019-03-05T19:05:36.170Z,7.30
2019-03-05T19:08:04.869Z,7.10
2019-03-05T19:10:33.614Z,7.20
2019-03-05T19:13:02.247Z,7.10
2019-03-05T19:15:31.192Z,7.20
2019-03-05T19:18:00.011Z,7.30
2019-03-05T19:20:29.869Z,7.20
2019-03-05T19:22:59.873Z,7.30
2019-03-05T19:25:36.514Z,7.30
2019-03-05T19:28:05.411Z,7.20
2019-03-05T19:30:38.560Z,7.30
2019-03-05T19:33:07.378Z,7.40
2019-03-05T19:35:35.989Z,7.40
2019-03-05T19:38:04.783Z,7.30
2019-03-05T19:40:41.562Z,7.30
2019-03-05T19:43:10.251Z,7.40
2019-03-05T19:45:38.871Z,7.40
2019-03-05T19:48:07.499Z,7.40
2019-03-05T19:50:36.111Z,7.40
2019-03-05T19:53:05.304Z,7.40
2019-03-05T19:55:34.056Z,7.30
2019-03-05T19:58:10.366Z,7.30
2019-03-05T20:00:45.860Z,7.30
2019-03-05T20:03:14.557Z,7.40
2019-03-05T20:05:43.268Z,7.50
2019-03-05T20:08:12.025Z,7.50
2019-03-05T20:10:40.633Z,7.50
2019-03-05T20:13:09.352Z,7.50
2019-03-05T20:15:38.041Z,7.40
2019-03-05T20:18:07.450Z,7.30
2019-03-05T20:20:36.323Z,7.20
2019-03-05T20:23:05.424Z,7.20
2019-03-05T20:25:34.112Z,7.20
2019-03-05T20:28:02.666Z,7.20
2019-03-05T20:30:31.348Z,7.20
2019-03-05T20:32:59.910Z,7.10
2019-03-05T20:35:28.522Z,7.10
2019-03-05T20:37:57.078Z,7.20
2019-03-05T20:40:27.027Z,7.30
2019-03-05T20:42:55.579Z,7.30
2019-03-05T20:45:35.115Z,7.30
2019-03-05T20:48:03.978Z,7.30
2019-03-05T20:50:32.817Z,7.30
2019-03-05T20:53:01.381Z,7.30
2019-03-05T20:55:30.000Z,7.30
2019-03-05T20:57:58.550Z,7.30
2019-03-05T21:00:29.475Z,7.30
2019-03-05T21:03:00.056Z,7.20
2019-03-05T21:05:31.001Z,7.20
2019-03-05T21:07:59.695Z,7.20
2019-03-05T21:10:28.369Z,7.20
2019-03-05T21:12:56.928Z,7.20
2019-03-05T21:15:26.021Z,7.20
2019-03-05T21:17:55.376Z,7.30
2019-03-05T21:20:23.911Z,7.30
2019-03-05T21:22:52.508Z,7.20
2019-03-05T21:25:21.437Z,7.30
2019-03-05T21:27:50.195Z,7.30
2019-03-05T21:30:26.200Z,7.30
2019-03-05T21:32:54.881Z,7.30
2019-03-05T21:35:23.581Z,7.30
2019-03-05T21:37:52.381Z,7.30
2019-03-05T21:40:28.574Z,7.30
2019-03-05T21:42:57.300Z,7.30
2019-03-05T21:45:33.881Z,7.20
2019-03-05T21:48:02.745Z,7.20
2019-03-05T21:50:31.296Z,7.30
2019-03-05T21:53:00.018Z,7.30
2019-03-05T21:55:28.713Z,7.40
2019-03-05T21:57:57.411Z,7.40
2019-03-05T22:00:28.924Z,7.40
2019-03-05T22:02:59.153Z,7.50
2019-03-05T22:05:27.849Z,7.50
2019-03-05T22:07:56.569Z,7.50
2019-03-05T22:10:25.360Z,7.50
2019-03-05T22:12:54.008Z,7.40
2019-03-05T22:15:24.267Z,7.40
2019-03-05T22:17:52.853Z,7.50
2019-03-05T22:20:22.044Z,7.40
2019-03-05T22:22:50.704Z,7.50
2019-03-05T22:25:22.847Z,7.60
2019-03-05T22:27:51.671Z,7.60
2019-03-05T22:30:25.504Z,7.60
2019-03-05T22:32:54.227Z,7.50
2019-03-05T22:35:23.080Z,7.40
2019-03-05T22:37:51.809Z,7.40
2019-03-05T22:40:24.913Z,7.40
2019-03-05T22:42:53.556Z,7.40
2019-03-05T22:45:24.255Z,7.40
2019-03-05T22:47:52.832Z,7.40
2019-03-05T22:50:21.465Z,7.30
2019-03-05T22:52:50.293Z,7.40
2019-03-05T22:55:18.982Z,7.40
2019-03-05T22:57:47.629Z,7.40
2019-03-05T23:00:23.804Z,7.40
2019-03-05T23:02:52.380Z,7.30
2019-03-05T23:05:21.249Z,7.30
2019-03-05T23:07:49.904Z,7.30
2019-03-05T23:10:19.292Z,7.30
2019-03-05T23:12:47.943Z,7.30
2019-03-05T23:15:18.404Z,7.20
2019-03-05T23:17:47.121Z,7.20
2019-03-05T23:20:16.620Z,7.20
2019-03-05T23:22:45.544Z,7.20
2019-03-05T23:25:16.614Z,7.20
2019-03-05T23:27:45.190Z,7.20
2019-03-05T23:30:21.272Z,7.30
2019-03-05T23:32:51.392Z,7.20
2019-03-05T23:35:20.294Z,7.20
2019-03-05T23:37:48.871Z,7.20
2019-03-05T23:40:17.769Z,7.10
2019-03-05T23:42:46.593Z,7.10
2019-03-05T23:45:19.237Z,7.10
2019-03-05T23:47:48.153Z,7.00
2019-03-05T23:50:17.349Z,7.00
2019-03-05T23:52:46.077Z,7.00
2019-03-05T23:55:14.967Z,7.00
2019-03-05T23:57:43.995Z,7.00
